Terminal Aerodrome Forecast
Issued by NWS

Current Version | Previous Version | Graphics & Text | Print | Product List | Glossary On
Versions: 1 2 3 4 5 6 7 8 9 10 11 12 13 14 15 16 17 18 19 20 21 22 23 24 25 26 27 28 29 30 31 32
000
FTUS41 KRNK 211528 AAA
TAFLWB
TAF AMD
KLWB 211528Z 2115/2212 02006KT P6SM BKN004 OVC012
      TEMPO 2117/2119 SCT005 OVC015
     FM211900 31007KT P6SM OVC018
     FM220000 32008KT P6SM OVC025
     FM220600 31003KT P6SM OVC012=

USA.gov is the U.S. government's official web portal to all federal, state and local government web resources and services.